createdAt,value
2023-02-28T00:01:32.022Z,101690.88
2023-02-28T00:03:59.961Z,101699.19
2023-02-28T00:06:27.783Z,101707.38
2023-02-28T00:08:55.724Z,101715.38
2023-02-28T00:11:30.688Z,101714.06
2023-02-28T00:13:59.266Z,101720.31
2023-02-28T00:16:27.478Z,101720.53
2023-02-28T00:18:55.256Z,101712.78
2023-02-28T00:21:23.103Z,101715.91
2023-02-28T00:23:50.930Z,101712.63
2023-02-28T00:26:21.541Z,101721.88
2023-02-28T00:28:50.798Z,101724.94
2023-02-28T00:31:18.728Z,101722.75
2023-02-28T00:33:46.637Z,101731.22
2023-02-28T00:36:17.110Z,101733.03
2023-02-28T00:38:45.635Z,101721.94
2023-02-28T00:41:14.070Z,101726.78
2023-02-28T00:43:43.848Z,101725.53
2023-02-28T00:46:12.652Z,101722.91
2023-02-28T00:48:40.632Z,101731.78
2023-02-28T00:51:08.423Z,101721.09
2023-02-28T00:53:39.021Z,101714.00
2023-02-28T00:56:07.003Z,101710.94
2023-02-28T00:58:35.577Z,101714.66
2023-02-28T01:01:03.495Z,101715.75
2023-02-28T01:03:32.469Z,101713.56
2023-02-28T01:06:00.617Z,101733.59
2023-02-28T01:08:28.759Z,101751.69
2023-02-28T01:10:58.620Z,101758.34
2023-02-28T01:13:26.776Z,101746.41
2023-02-28T01:15:56.737Z,101747.84
2023-02-28T01:18:25.912Z,101749.03
2023-02-28T01:20:54.073Z,101768.66
2023-02-28T01:23:22.928Z,101772.06
2023-02-28T01:25:54.297Z,101756.13
2023-02-28T01:28:22.277Z,101770.00
2023-02-28T01:30:51.748Z,101778.19
2023-02-28T01:33:19.951Z,101772.69
2023-02-28T01:35:47.811Z,101787.06
2023-02-28T01:38:22.681Z,101776.78
2023-02-28T01:40:51.218Z,101777.81
2023-02-28T01:43:27.039Z,101772.44
2023-02-28T01:45:57.733Z,101772.84
2023-02-28T01:48:37.016Z,101770.69
2023-02-28T01:51:07.967Z,101759.69
2023-02-28T01:53:44.073Z,101745.91
2023-02-28T01:56:12.460Z,101756.00
2023-02-28T01:58:40.576Z,101754.31
2023-02-28T02:01:08.370Z,101752.56
2023-02-28T02:03:36.647Z,101760.63
2023-02-28T02:06:04.763Z,101776.63
2023-02-28T02:08:34.107Z,101766.25
2023-02-28T02:11:02.607Z,101772.44
2023-02-28T02:13:54.476Z,101788.34
2023-02-28T02:16:47.195Z,101793.53
2023-02-28T02:19:56.928Z,101805.72
2023-02-28T02:22:51.972Z,101814.00
2023-02-28T02:25:52.361Z,101802.16
2023-02-28T02:28:41.618Z,101821.16
2023-02-28T02:31:30.389Z,101826.59
2023-02-28T02:34:11.950Z,101836.94
2023-02-28T02:36:50.397Z,101842.75
2023-02-28T02:39:44.035Z,101854.22
2023-02-28T02:42:41.060Z,101850.56
2023-02-28T02:45:20.144Z,101854.09
2023-02-28T02:47:49.824Z,101860.56
2023-02-28T02:50:24.156Z,101874.34
2023-02-28T02:52:56.971Z,101875.75
2023-02-28T02:55:25.168Z,101889.44
2023-02-28T02:57:58.613Z,101886.88
2023-02-28T03:00:29.655Z,101894.94
2023-02-28T03:02:57.416Z,101885.66
2023-02-28T03:05:37.271Z,101878.84
2023-02-28T03:08:06.688Z,101884.19
2023-02-28T03:10:38.933Z,101895.66
2023-02-28T03:13:44.531Z,101906.03
2023-02-28T03:16:15.647Z,101915.94
2023-02-28T03:19:06.305Z,101910.19
2023-02-28T03:22:04.115Z,101921.63
2023-02-28T03:24:49.523Z,101918.31
2023-02-28T03:27:29.165Z,101917.41
2023-02-28T03:30:05.846Z,101913.97
2023-02-28T03:32:38.132Z,101910.38
2023-02-28T03:35:31.060Z,101913.63
2023-02-28T03:38:04.788Z,101902.75
2023-02-28T03:40:34.096Z,101915.22
2023-02-28T03:43:04.863Z,101919.78
2023-02-28T03:45:34.659Z,101911.59
2023-02-28T03:48:06.821Z,101917.56
2023-02-28T03:50:39.564Z,101925.75
2023-02-28T03:53:21.617Z,101920.28
2023-02-28T03:56:09.623Z,101913.09
2023-02-28T03:58:58.498Z,101908.16
2023-02-28T04:01:28.935Z,101918.13
2023-02-28T04:03:57.025Z,101912.78
2023-02-28T04:06:25.097Z,101930.25
2023-02-28T04:08:52.943Z,101934.72
2023-02-28T04:11:38.902Z,101936.09
2023-02-28T04:14:07.295Z,101934.16
2023-02-28T04:16:36.210Z,101942.13
2023-02-28T04:19:06.270Z,101947.78
2023-02-28T04:21:36.663Z,101952.09
2023-02-28T04:24:07.046Z,101963.38
2023-02-28T04:26:36.734Z,101966.06
2023-02-28T04:29:05.855Z,101982.22
2023-02-28T04:31:34.797Z,101986.41
2023-02-28T04:34:02.978Z,101977.38
2023-02-28T04:36:31.621Z,101982.28
2023-02-28T04:39:01.132Z,101985.34
2023-02-28T04:41:32.623Z,101984.75
2023-02-28T04:44:00.882Z,101997.84
2023-02-28T04:46:29.236Z,101991.75
2023-02-28T04:48:56.923Z,101984.94
2023-02-28T04:51:25.497Z,101991.59
2023-02-28T04:53:55.908Z,101989.41
2023-02-28T04:56:23.964Z,101998.69
2023-02-28T04:58:54.211Z,101993.28
2023-02-28T05:01:24.725Z,102006.28
2023-02-28T05:03:53.476Z,102002.81
2023-02-28T05:06:27.190Z,102015.00
2023-02-28T05:08:55.375Z,102012.09
2023-02-28T05:11:28.663Z,102005.03
2023-02-28T05:13:56.635Z,102003.78
2023-02-28T05:16:24.381Z,102014.47
2023-02-28T05:18:55.558Z,102023.06
2023-02-28T05:21:41.756Z,102029.19
2023-02-28T05:24:13.852Z,102021.03
2023-02-28T05:26:42.818Z,102021.56
2023-02-28T05:29:10.811Z,102018.16
2023-02-28T05:31:39.790Z,102014.94
2023-02-28T05:34:07.768Z,102015.69
2023-02-28T05:36:38.131Z,102010.19
2023-02-28T05:39:13.827Z,102013.53
2023-02-28T05:41:44.807Z,102024.81
2023-02-28T05:44:13.580Z,102025.38
2023-02-28T05:46:45.464Z,102032.88
2023-02-28T05:49:14.089Z,102036.91
2023-02-28T05:51:42.192Z,102041.38
2023-02-28T05:54:13.562Z,102046.31
2023-02-28T05:56:45.399Z,102051.72
2023-02-28T05:59:14.425Z,102064.63
2023-02-28T06:01:46.388Z,102054.72
2023-02-28T06:04:30.390Z,102059.38
2023-02-28T06:06:58.943Z,102053.84
2023-02-28T06:09:32.655Z,102053.25
2023-02-28T06:12:01.707Z,102055.16
2023-02-28T06:14:29.901Z,102060.78
2023-02-28T06:17:02.183Z,102062.25
2023-02-28T06:19:31.407Z,102068.09
2023-02-28T06:22:00.855Z,102071.44
2023-02-28T06:24:29.574Z,102068.75
2023-02-28T06:27:00.014Z,102059.91
2023-02-28T06:29:28.106Z,102072.31
2023-02-28T06:31:56.650Z,102064.22
2023-02-28T06:34:25.130Z,102059.84
2023-02-28T06:36:53.413Z,102067.06
2023-02-28T06:39:26.384Z,102059.25
2023-02-28T06:41:56.194Z,102064.16
2023-02-28T06:44:24.721Z,102076.03
2023-02-28T06:46:52.920Z,102081.47
2023-02-28T06:49:25.725Z,102071.22
2023-02-28T06:52:01.829Z,102087.34
2023-02-28T06:54:30.206Z,102098.66
2023-02-28T06:56:59.301Z,102083.16
2023-02-28T06:59:27.445Z,102085.72
2023-02-28T07:01:56.498Z,102088.63
2023-02-28T07:04:25.328Z,102093.81
2023-02-28T07:06:58.428Z,102088.38
2023-02-28T07:09:31.271Z,102099.53
2023-02-28T07:12:03.108Z,102099.09
2023-02-28T07:14:31.742Z,102097.16
2023-02-28T07:16:59.966Z,102110.41
2023-02-28T07:19:42.459Z,102097.59
2023-02-28T07:22:10.881Z,102120.00
2023-02-28T07:24:42.411Z,102100.22
2023-02-28T07:27:28.118Z,102097.97
2023-02-28T07:30:02.949Z,102091.25
2023-02-28T07:32:32.305Z,102087.34
2023-02-28T07:35:00.962Z,102084.25
2023-02-28T07:37:32.824Z,102085.88
2023-02-28T07:40:03.365Z,102094.06
2023-02-28T07:42:33.503Z,102088.25
2023-02-28T07:45:05.364Z,102092.16
2023-02-28T07:47:35.903Z,102081.84
2023-02-28T07:50:41.358Z,102073.41
2023-02-28T07:53:09.575Z,102074.88
2023-02-28T07:55:41.665Z,102080.16
2023-02-28T07:58:14.000Z,102093.47
2023-02-28T08:00:42.386Z,102091.19
2023-02-28T08:03:13.278Z,102100.59
2023-02-28T08:05:41.590Z,102115.53
2023-02-28T08:08:12.409Z,102105.22
2023-02-28T08:10:57.384Z,102111.50
2023-02-28T08:13:25.896Z,102113.13
2023-02-28T08:15:56.102Z,102111.66
2023-02-28T08:18:24.289Z,102111.94
2023-02-28T08:20:55.630Z,102099.09
2023-02-28T08:23:24.699Z,102102.13
2023-02-28T08:25:57.132Z,102103.44
2023-02-28T08:28:27.799Z,102104.66
2023-02-28T08:30:56.602Z,102111.06
2023-02-28T08:33:28.248Z,102119.59
2023-02-28T08:35:57.034Z,102122.00
2023-02-28T08:38:25.344Z,102116.81
2023-02-28T08:41:00.882Z,102118.38
2023-02-28T08:43:30.383Z,102124.13
2023-02-28T08:46:01.834Z,102109.88
2023-02-28T08:48:30.863Z,102114.28
2023-02-28T08:51:07.328Z,102118.25
2023-02-28T08:53:38.423Z,102120.50
2023-02-28T08:56:12.870Z,102114.66
2023-02-28T08:58:45.127Z,102127.28
2023-02-28T09:01:31.972Z,102137.44
2023-02-28T09:04:19.817Z,102140.00
2023-02-28T09:06:50.809Z,102135.38
2023-02-28T09:09:23.545Z,102143.84
2023-02-28T09:12:06.453Z,102132.59
2023-02-28T09:14:38.831Z,102137.63
2023-02-28T09:17:12.749Z,102126.53
2023-02-28T09:19:47.220Z,102148.13
2023-02-28T09:22:27.551Z,102142.31
2023-02-28T09:24:58.662Z,102128.47
2023-02-28T09:27:30.402Z,102142.06
2023-02-28T09:30:05.713Z,102148.72
2023-02-28T09:32:55.773Z,102142.28
2023-02-28T09:35:35.608Z,102145.97
2023-02-28T09:38:04.907Z,102146.84
2023-02-28T09:40:48.897Z,102138.53
2023-02-28T09:43:42.439Z,102143.94
2023-02-28T09:46:48.831Z,102134.28
2023-02-28T09:49:23.647Z,102141.84
2023-02-28T09:52:19.100Z,102128.84
2023-02-28T09:58:04.872Z,102126.28
2023-02-28T10:00:41.702Z,102117.81
2023-02-28T10:03:26.496Z,102133.84
2023-02-28T10:09:12.716Z,102133.19
2023-02-28T10:11:59.082Z,102124.00
2023-02-28T10:14:35.436Z,102143.72
2023-02-28T10:17:49.342Z,102128.94
2023-02-28T10:20:34.204Z,102126.38
2023-02-28T10:23:17.468Z,102130.78
2023-02-28T10:26:00.508Z,102127.59
2023-02-28T10:28:37.025Z,102124.88
2023-02-28T10:31:18.728Z,102121.91
2023-02-28T10:33:53.423Z,102119.22
2023-02-28T10:36:25.408Z,102119.28
2023-02-28T10:38:55.408Z,102120.34
2023-02-28T10:41:41.479Z,102120.19
2023-02-28T10:44:26.594Z,102114.97
2023-02-28T10:47:05.883Z,102107.22
2023-02-28T10:49:35.937Z,102109.53
2023-02-28T10:52:09.087Z,102106.63
2023-02-28T10:54:44.388Z,102120.41
2023-02-28T10:57:25.698Z,102113.34
2023-02-28T10:59:56.926Z,102124.03
2023-02-28T11:02:42.071Z,102117.94
2023-02-28T11:09:09.432Z,102088.97
2023-02-28T11:11:46.711Z,102097.53
2023-02-28T11:14:44.367Z,102082.66
2023-02-28T11:17:26.743Z,102092.84
2023-02-28T11:19:58.178Z,102088.06
2023-02-28T11:22:30.032Z,102069.81
2023-02-28T11:25:04.911Z,102087.78
2023-02-28T11:27:35.064Z,102088.22
2023-02-28T11:30:09.941Z,102100.59
2023-02-28T11:32:42.043Z,102097.09
2023-02-28T11:35:11.087Z,102096.03
2023-02-28T11:37:48.041Z,102088.13
2023-02-28T11:40:20.802Z,102095.38
2023-02-28T11:43:15.926Z,102093.38
2023-02-28T11:46:13.314Z,102091.94
2023-02-28T11:49:10.245Z,102084.78
2023-02-28T11:51:59.501Z,102091.34
2023-02-28T11:55:00.526Z,102088.88
2023-02-28T11:57:33.054Z,102078.16
2023-02-28T12:00:31.385Z,102089.41
2023-02-28T12:03:24.477Z,102089.25
2023-02-28T12:06:14.295Z,102075.91
2023-02-28T12:09:15.126Z,102074.63
2023-02-28T12:11:57.194Z,102077.75
2023-02-28T12:14:40.300Z,102092.50
2023-02-28T12:17:24.745Z,102079.44
2023-02-28T12:19:56.754Z,102077.31
2023-02-28T12:22:43.866Z,102079.16
2023-02-28T12:25:57.514Z,102084.63
2023-02-28T12:28:32.602Z,102075.94
2023-02-28T12:31:13.831Z,102073.47
2023-02-28T12:33:49.882Z,102088.72
2023-02-28T12:36:22.655Z,102087.81
2023-02-28T12:39:17.051Z,102080.97
2023-02-28T12:42:04.091Z,102080.56
2023-02-28T12:48:05.140Z,102077.25
2023-02-28T12:57:34.922Z,102063.72
2023-02-28T13:00:34.935Z,102068.56
2023-02-28T13:04:06.375Z,102057.59
2023-02-28T13:06:57.996Z,102054.19
2023-02-28T13:09:36.088Z,102046.66
2023-02-28T13:12:16.699Z,102055.13
2023-02-28T13:14:46.191Z,102055.53
2023-02-28T13:17:22.443Z,102055.13
2023-02-28T13:19:55.365Z,102044.69
2023-02-28T13:22:26.498Z,102062.09
2023-02-28T13:24:55.391Z,102054.91
2023-02-28T13:27:34.112Z,102046.31
2023-02-28T13:30:04.890Z,102037.19
2023-02-28T13:35:38.157Z,102041.28
2023-02-28T13:38:17.098Z,102022.91
2023-02-28T13:40:46.690Z,102028.00
2023-02-28T13:43:25.296Z,102036.41
2023-02-28T13:46:13.935Z,102053.31
2023-02-28T13:48:46.043Z,102056.50
2023-02-28T13:51:42.883Z,102039.75
2023-02-28T13:54:40.456Z,102043.53
2023-02-28T13:57:29.674Z,102046.53
2023-02-28T14:00:24.097Z,102028.97
2023-02-28T14:03:55.209Z,102038.81
2023-02-28T14:06:50.713Z,102042.38
2023-02-28T14:09:42.798Z,102029.28
2023-02-28T14:17:02.181Z,102031.72
2023-02-28T14:19:53.247Z,102028.31
2023-02-28T14:22:31.823Z,102029.16
2023-02-28T14:25:29.456Z,102026.06
2023-02-28T14:28:35.279Z,102044.50
2023-02-28T14:31:26.244Z,102043.44
2023-02-28T14:34:20.067Z,102046.13
2023-02-28T14:36:48.943Z,102032.22
2023-02-28T14:39:24.321Z,102032.81
2023-02-28T14:41:55.735Z,102031.28
2023-02-28T14:44:26.774Z,102041.34
2023-02-28T14:47:06.817Z,102044.72
2023-02-28T14:49:52.528Z,102038.91
2023-02-28T14:52:22.698Z,102038.28
2023-02-28T14:55:02.256Z,102040.69
2023-02-28T14:57:37.671Z,102039.72
2023-02-28T15:00:12.851Z,102040.03
2023-02-28T15:02:41.510Z,102033.47
2023-02-28T15:05:28.071Z,102030.03
2023-02-28T15:08:30.754Z,102028.97
2023-02-28T15:11:02.324Z,102027.03
2023-02-28T15:13:47.452Z,102034.97
2023-02-28T15:16:26.595Z,102029.34
2023-02-28T15:18:58.505Z,102035.91
2023-02-28T15:21:34.105Z,102030.38
2023-02-28T15:24:27.724Z,102024.63
2023-02-28T15:26:57.747Z,102019.06
2023-02-28T15:29:29.653Z,102028.88
2023-02-28T15:32:11.103Z,102030.50
2023-02-28T15:34:44.727Z,102023.22
2023-02-28T15:37:34.622Z,102035.97
2023-02-28T15:40:15.277Z,102038.28
2023-02-28T15:42:45.112Z,102028.97
2023-02-28T15:45:49.211Z,102040.00
2023-02-28T15:48:32.047Z,102046.06
2023-02-28T15:51:11.212Z,102053.44
2023-02-28T15:53:58.218Z,102049.81
2023-02-28T15:56:31.138Z,102053.03
2023-02-28T15:59:00.296Z,102050.84
2023-02-28T16:01:31.440Z,102053.91
2023-02-28T16:04:01.853Z,102048.44
2023-02-28T16:06:38.272Z,102041.28
2023-02-28T16:09:11.116Z,102054.41
2023-02-28T16:11:51.982Z,102053.91
2023-02-28T16:14:28.208Z,102052.44
2023-02-28T16:17:10.042Z,102044.38
2023-02-28T16:19:38.006Z,102060.63
2023-02-28T16:22:07.228Z,102054.66
2023-02-28T16:24:35.454Z,102055.00
2023-02-28T16:27:06.747Z,102056.69
2023-02-28T16:29:36.356Z,102054.84
2023-02-28T16:32:07.542Z,102056.94
2023-02-28T16:34:37.624Z,102068.28
2023-02-28T16:37:10.980Z,102057.53
2023-02-28T16:39:41.038Z,102061.13
2023-02-28T16:42:22.982Z,102048.84
2023-02-28T16:44:50.864Z,102056.03
2023-02-28T16:47:18.778Z,102050.91
2023-02-28T16:49:49.492Z,102060.81
2023-02-28T16:52:17.640Z,102070.28
2023-02-28T16:54:45.676Z,102037.81
2023-02-28T16:57:23.299Z,102045.13
2023-02-28T16:59:54.006Z,102037.44
2023-02-28T17:02:22.315Z,102026.94
2023-02-28T17:04:50.353Z,102031.41
2023-02-28T17:07:18.465Z,102018.91
2023-02-28T17:09:46.840Z,102020.06
2023-02-28T17:12:15.642Z,102022.97
2023-02-28T17:14:45.145Z,102017.47
2023-02-28T17:17:21.391Z,102007.13
2023-02-28T17:19:54.421Z,102014.47
2023-02-28T17:22:22.752Z,102010.00
2023-02-28T17:24:51.933Z,102012.25
2023-02-28T17:27:20.503Z,102002.31
2023-02-28T17:29:49.279Z,102020.16
2023-02-28T17:32:18.664Z,102018.66
2023-02-28T17:34:47.262Z,102018.03
2023-02-28T17:37:17.563Z,102010.78
2023-02-28T17:39:45.495Z,102019.53
2023-02-28T17:42:17.397Z,102008.16
2023-02-28T17:44:46.313Z,102013.56
2023-02-28T17:47:14.273Z,102022.25
2023-02-28T17:49:42.867Z,102005.50
2023-02-28T17:52:10.708Z,102024.06
2023-02-28T17:54:39.869Z,102016.97
2023-02-28T17:57:11.464Z,102009.38
2023-02-28T17:59:39.711Z,102010.88
2023-02-28T18:02:08.029Z,102018.09
2023-02-28T18:04:36.020Z,102007.75
2023-02-28T18:07:04.013Z,102014.03
2023-02-28T18:09:31.733Z,102006.84
2023-02-28T18:11:59.426Z,102006.09
2023-02-28T18:14:27.584Z,102014.91
2023-02-28T18:16:57.670Z,102031.66
2023-02-28T18:19:26.200Z,102028.50
2023-02-28T18:21:55.053Z,102017.91
2023-02-28T18:24:23.298Z,102006.72
2023-02-28T18:26:51.717Z,102010.38
2023-02-28T18:29:27.557Z,102010.38
2023-02-28T18:31:56.110Z,101994.25
2023-02-28T18:34:24.382Z,102004.50
2023-02-28T18:36:52.588Z,101997.22
2023-02-28T18:39:20.610Z,102011.41
2023-02-28T18:41:48.915Z,102021.38
2023-02-28T18:44:20.156Z,102006.16
2023-02-28T18:46:51.097Z,102007.88
2023-02-28T18:49:19.214Z,102011.06
2023-02-28T18:51:47.317Z,102023.56
2023-02-28T18:54:16.831Z,102020.25
2023-02-28T18:56:45.148Z,102014.53
2023-02-28T18:59:13.123Z,102009.97
2023-02-28T19:01:41.211Z,102002.41
2023-02-28T19:04:12.386Z,102007.59
2023-02-28T19:06:40.281Z,102007.75
2023-02-28T19:09:09.018Z,102010.66
2023-02-28T19:11:37.303Z,102007.81
2023-02-28T19:14:09.753Z,102003.94
2023-02-28T19:16:37.882Z,102001.19
2023-02-28T19:19:05.912Z,102002.63
2023-02-28T19:21:36.840Z,101999.00
2023-02-28T19:24:04.943Z,102003.06
2023-02-28T19:26:37.884Z,102004.03
2023-02-28T19:29:05.632Z,102001.81
2023-02-28T19:31:33.851Z,101996.44
2023-02-28T19:34:01.968Z,101995.94
2023-02-28T19:36:29.894Z,102004.81
2023-02-28T19:38:57.896Z,102004.38
2023-02-28T19:41:25.619Z,102010.28
2023-02-28T19:43:54.335Z,102010.00
2023-02-28T19:46:21.922Z,101996.94
2023-02-28T19:48:49.913Z,101998.56
2023-02-28T19:53:46.310Z,101999.28
2023-02-28T19:56:14.513Z,101995.22
2023-02-28T19:58:42.132Z,101991.78
2023-02-28T20:01:14.073Z,101994.69
2023-02-28T20:03:42.176Z,101996.16
2023-02-28T20:06:11.290Z,101987.06
2023-02-28T20:08:39.546Z,101991.84
2023-02-28T20:11:12.552Z,101987.56
2023-02-28T20:13:40.583Z,101980.22
2023-02-28T20:16:09.830Z,101972.44
2023-02-28T20:18:38.368Z,101982.41
2023-02-28T20:21:08.736Z,101984.66
2023-02-28T20:23:38.826Z,101987.94
2023-02-28T20:26:06.582Z,101994.50
2023-02-28T20:28:34.357Z,101980.88
2023-02-28T20:31:02.056Z,101982.25
2023-02-28T20:33:30.072Z,101987.56
2023-02-28T20:35:59.767Z,101991.56
2023-02-28T20:38:28.251Z,101980.41
2023-02-28T20:40:56.697Z,101978.81
2023-02-28T20:43:25.152Z,101977.50
2023-02-28T20:45:58.479Z,101974.94
2023-02-28T20:48:26.982Z,101977.19
2023-02-28T20:50:56.157Z,101960.66
2023-02-28T20:53:24.681Z,101973.38
2023-02-28T20:56:00.269Z,101975.53
2023-02-28T20:58:34.550Z,101958.31
2023-02-28T21:01:03.639Z,101968.16
2023-02-28T21:03:31.596Z,101966.34
2023-02-28T21:06:03.185Z,101955.13
2023-02-28T21:08:34.698Z,101953.66
2023-02-28T21:11:02.613Z,101948.91
2023-02-28T21:13:30.669Z,101942.88
2023-02-28T21:16:09.873Z,101948.69
2023-02-28T21:18:38.925Z,101945.72
2023-02-28T21:21:17.524Z,101935.50
2023-02-28T21:23:46.920Z,101930.69
2023-02-28T21:26:19.550Z,101933.00
2023-02-28T21:28:51.023Z,101932.00
2023-02-28T21:31:19.890Z,101935.47
2023-02-28T21:33:47.925Z,101932.94
2023-02-28T21:36:18.065Z,101930.91
2023-02-28T21:38:46.090Z,101922.50
2023-02-28T21:41:21.162Z,101909.97
2023-02-28T21:43:49.154Z,101914.72
2023-02-28T21:46:20.818Z,101907.91
2023-02-28T21:48:49.267Z,101902.81
2023-02-28T21:51:21.806Z,101901.06
2023-02-28T21:53:49.937Z,101891.63
2023-02-28T21:56:25.311Z,101885.25
2023-02-28T21:59:00.700Z,101883.06
2023-02-28T22:01:32.734Z,101878.09
2023-02-28T22:04:01.237Z,101877.59
2023-02-28T22:06:31.105Z,101882.28
2023-02-28T22:09:02.171Z,101887.31
2023-02-28T22:11:29.949Z,101880.56
2023-02-28T22:13:59.303Z,101887.31
2023-02-28T22:16:33.205Z,101876.50
2023-02-28T22:19:08.004Z,101870.13
2023-02-28T22:21:36.120Z,101867.75
2023-02-28T22:24:04.366Z,101867.59
2023-02-28T22:26:33.133Z,101868.03
2023-02-28T22:29:02.781Z,101863.19
2023-02-28T22:31:31.775Z,101868.03
2023-02-28T22:34:02.344Z,101874.88
2023-02-28T22:36:30.597Z,101872.63
2023-02-28T22:38:58.438Z,101873.66
2023-02-28T22:41:26.785Z,101875.22
2023-02-28T22:43:56.546Z,101863.03
2023-02-28T22:46:24.652Z,101864.06
2023-02-28T22:48:52.768Z,101851.66
2023-02-28T22:51:22.333Z,101849.88
2023-02-28T22:53:50.367Z,101848.59
2023-02-28T22:56:20.555Z,101847.47
2023-02-28T22:58:52.541Z,101853.09
2023-02-28T23:01:20.935Z,101847.47
2023-02-28T23:03:48.964Z,101851.28
2023-02-28T23:06:30.471Z,101852.16
2023-02-28T23:09:03.788Z,101850.16
2023-02-28T23:11:33.516Z,101848.34
2023-02-28T23:14:01.247Z,101852.75
2023-02-28T23:16:37.629Z,101857.50
2023-02-28T23:19:08.571Z,101847.41
2023-02-28T23:21:36.094Z,101842.38
2023-02-28T23:24:04.994Z,101835.97
2023-02-28T23:26:33.086Z,101831.31
2023-02-28T23:29:01.374Z,101829.50
2023-02-28T23:31:30.537Z,101831.16
2023-02-28T23:34:02.679Z,101826.31
2023-02-28T23:36:32.458Z,101832.28
2023-02-28T23:39:00.416Z,101825.09
2023-02-28T23:41:28.148Z,101814.53
2023-02-28T23:43:56.319Z,101804.53
2023-02-28T23:46:23.985Z,101802.47
2023-02-28T23:48:51.503Z,101784.38
2023-02-28T23:51:20.651Z,101790.38
2023-02-28T23:53:49.713Z,101784.16
2023-02-28T23:56:19.300Z,101781.13
2023-02-28T23:58:48.390Z,101769.31
